createdAt,value
2022-10-22T00:01:05.311Z,15.90
2022-10-22T00:03:32.425Z,16.08
2022-10-22T00:05:59.341Z,12.63
2022-10-22T00:08:26.095Z,13.68
2022-10-22T00:10:53.085Z,13.33
2022-10-22T00:13:20.612Z,16.10
2022-10-22T00:15:47.359Z,13.30
2022-10-22T00:18:14.330Z,11.87
2022-10-22T00:20:41.313Z,11.17
2022-10-22T00:23:08.041Z,10.40
2022-10-22T00:25:36.134Z,9.23
2022-10-22T00:28:03.817Z,9.37
2022-10-22T00:30:30.633Z,10.30
2022-10-22T00:32:57.348Z,10.27
2022-10-22T00:35:24.039Z,9.98
2022-10-22T00:37:50.802Z,9.87
2022-10-22T00:40:17.656Z,10.70
2022-10-22T00:42:44.873Z,9.77
2022-10-22T00:45:11.460Z,9.90
2022-10-22T00:47:42.647Z,9.60
2022-10-22T00:50:17.903Z,11.57
2022-10-22T00:52:44.830Z,9.80
2022-10-22T00:55:13.447Z,10.30
2022-10-22T00:57:41.136Z,10.75
2022-10-22T01:00:08.553Z,9.43
2022-10-22T01:02:35.850Z,10.00
2022-10-22T01:05:02.822Z,9.65
2022-10-22T01:07:29.471Z,8.70
2022-10-22T01:10:26.776Z,9.97
2022-10-22T01:13:10.440Z,9.02
2022-10-22T01:15:56.822Z,8.13
2022-10-22T01:18:27.295Z,8.93
2022-10-22T01:21:05.910Z,9.53
2022-10-22T01:23:35.514Z,9.93
2022-10-22T01:26:31.356Z,10.63
2022-10-22T01:28:57.926Z,9.33
2022-10-22T01:31:28.465Z,10.33
2022-10-22T01:33:55.443Z,10.40
2022-10-22T01:36:22.335Z,10.67
2022-10-22T01:38:50.560Z,10.73
2022-10-22T01:41:17.322Z,10.47
2022-10-22T01:43:44.054Z,9.27
2022-10-22T01:46:12.935Z,8.60
2022-10-22T01:48:51.663Z,9.50
2022-10-22T01:51:27.719Z,17.23
2022-10-22T01:54:00.706Z,12.27
2022-10-22T01:56:30.336Z,12.47
2022-10-22T01:59:18.801Z,15.67
2022-10-22T02:02:13.453Z,21.83
2022-10-22T02:04:58.295Z,18.57
2022-10-22T02:07:37.426Z,12.65
2022-10-22T02:10:07.599Z,12.43
2022-10-22T02:12:35.540Z,11.03
2022-10-22T02:15:03.819Z,10.73
2022-10-22T02:17:33.366Z,10.90
2022-10-22T02:20:12.969Z,27.43
2022-10-22T02:22:40.309Z,10.07
2022-10-22T02:25:08.130Z,7.87
2022-10-22T02:28:12.642Z,7.77
2022-10-22T02:30:42.674Z,13.67
2022-10-22T02:33:16.434Z,21.00
2022-10-22T02:35:43.802Z,15.97
2022-10-22T02:38:11.674Z,16.67
2022-10-22T02:40:38.533Z,15.70
2022-10-22T02:43:06.298Z,14.53
2022-10-22T02:45:34.670Z,13.30
2022-10-22T02:48:01.315Z,14.17
2022-10-22T02:50:27.974Z,18.03
2022-10-22T02:52:54.554Z,12.80
2022-10-22T02:55:21.734Z,10.77
2022-10-22T02:57:48.380Z,10.50
2022-10-22T03:00:15.396Z,18.10
2022-10-22T03:02:42.166Z,16.47
2022-10-22T03:05:09.317Z,19.33
2022-10-22T03:07:36.062Z,14.17
2022-10-22T03:10:03.187Z,14.37
2022-10-22T03:12:29.850Z,17.27
2022-10-22T03:14:56.478Z,14.77
2022-10-22T03:17:23.461Z,32.43
2022-10-22T03:19:50.128Z,34.63
2022-10-22T03:22:23.635Z,41.00
2022-10-22T03:24:54.382Z,45.63
2022-10-22T03:27:23.363Z,17.90
2022-10-22T03:29:52.611Z,10.83
2022-10-22T03:32:19.446Z,9.53
2022-10-22T03:34:46.123Z,9.50
2022-10-22T03:37:12.962Z,10.57
2022-10-22T03:39:40.262Z,15.37
2022-10-22T03:42:08.120Z,16.80
2022-10-22T03:44:37.302Z,13.90
2022-10-22T03:47:04.525Z,14.83
2022-10-22T03:49:31.289Z,13.40
2022-10-22T03:52:14.001Z,12.07
2022-10-22T03:54:42.188Z,17.83
2022-10-22T03:57:10.365Z,11.40
2022-10-22T03:59:42.605Z,13.83
2022-10-22T04:02:10.846Z,25.77
2022-10-22T04:04:38.202Z,29.87
2022-10-22T04:07:06.723Z,12.87
2022-10-22T04:09:34.475Z,9.70
2022-10-22T04:12:01.461Z,9.50
2022-10-22T04:14:28.178Z,9.87
2022-10-22T04:16:54.865Z,13.97
2022-10-22T04:19:21.602Z,11.17
2022-10-22T04:21:48.242Z,11.13
2022-10-22T04:24:15.004Z,14.43
2022-10-22T04:26:41.768Z,12.97
2022-10-22T04:29:11.911Z,12.07
2022-10-22T04:31:41.867Z,11.10
2022-10-22T04:34:08.661Z,12.33
2022-10-22T04:36:35.347Z,12.10
2022-10-22T04:39:02.694Z,13.60
2022-10-22T04:41:32.628Z,12.30
2022-10-22T04:44:00.225Z,21.50
2022-10-22T04:46:29.838Z,17.23
2022-10-22T04:48:56.521Z,12.67
2022-10-22T04:51:25.468Z,11.07
2022-10-22T04:53:52.302Z,12.10
2022-10-22T04:56:24.989Z,25.87
2022-10-22T04:58:54.644Z,48.33
2022-10-22T05:01:24.090Z,67.40
2022-10-22T05:03:53.115Z,28.30
2022-10-22T05:06:27.349Z,20.17
2022-10-22T05:08:56.312Z,15.33
2022-10-22T05:11:28.675Z,12.30
2022-10-22T05:13:57.199Z,12.47
2022-10-22T05:16:24.723Z,18.80
2022-10-22T05:18:51.399Z,23.10
2022-10-22T05:21:20.549Z,18.27
2022-10-22T05:23:48.993Z,14.97
2022-10-22T05:26:19.085Z,11.43
2022-10-22T05:28:47.014Z,14.13
2022-10-22T05:31:14.437Z,14.03
2022-10-22T05:33:42.237Z,13.90
2022-10-22T05:36:12.603Z,16.43
2022-10-22T05:38:39.502Z,15.80
2022-10-22T05:41:15.375Z,16.83
2022-10-22T05:43:42.626Z,14.77
2022-10-22T05:46:18.766Z,18.87
2022-10-22T05:48:56.938Z,22.73
2022-10-22T05:51:24.752Z,28.45
2022-10-22T05:53:56.828Z,20.88
2022-10-22T05:56:24.497Z,20.73
2022-10-22T05:58:51.692Z,21.90
2022-10-22T06:01:24.302Z,27.30
2022-10-22T06:03:54.710Z,27.77
2022-10-22T06:06:34.300Z,28.70
2022-10-22T06:09:04.198Z,17.10
2022-10-22T06:11:34.263Z,12.57
2022-10-22T06:14:02.528Z,13.93
2022-10-22T06:16:30.102Z,14.40
2022-10-22T06:19:00.078Z,15.00
2022-10-22T06:21:26.749Z,16.38
2022-10-22T06:23:59.491Z,19.05
2022-10-22T06:26:26.529Z,24.35
2022-10-22T06:28:53.315Z,22.52
2022-10-22T06:31:20.105Z,21.42
2022-10-22T06:33:46.784Z,21.35
2022-10-22T06:36:16.634Z,19.38
2022-10-22T06:38:43.438Z,17.55
2022-10-22T06:41:13.412Z,17.23
2022-10-22T06:43:41.235Z,16.25
2022-10-22T06:46:09.938Z,16.42
2022-10-22T06:48:38.086Z,10.80
2022-10-22T06:51:11.128Z,13.35
2022-10-22T06:53:39.206Z,13.90
2022-10-22T06:56:11.281Z,13.77
2022-10-22T06:58:38.455Z,13.80
2022-10-22T07:01:13.474Z,14.73
2022-10-22T07:03:41.393Z,13.38
2022-10-22T07:06:10.934Z,13.90
2022-10-22T07:08:38.964Z,12.50
2022-10-22T07:11:17.346Z,12.95
2022-10-22T07:13:45.410Z,12.75
2022-10-22T07:16:12.735Z,11.57
2022-10-22T07:18:40.568Z,11.63
2022-10-22T07:21:08.868Z,15.18
2022-10-22T07:23:35.981Z,16.30
2022-10-22T07:26:03.582Z,13.63
2022-10-22T07:28:30.888Z,14.73
2022-10-22T07:30:57.579Z,15.63
2022-10-22T07:33:24.243Z,14.80
2022-10-22T07:35:50.928Z,9.13
2022-10-22T07:38:17.638Z,8.68
2022-10-22T07:40:44.345Z,9.50
2022-10-22T07:43:11.026Z,6.25
2022-10-22T07:45:37.723Z,7.00
2022-10-22T07:48:04.727Z,5.90
2022-10-22T07:50:31.398Z,7.55
2022-10-22T07:52:58.467Z,7.95
2022-10-22T07:55:25.862Z,7.80
2022-10-22T07:57:52.787Z,8.15
2022-10-22T08:00:23.038Z,9.35
2022-10-22T08:02:52.363Z,10.35
2022-10-22T08:05:19.486Z,10.80
2022-10-22T08:07:46.401Z,9.93
2022-10-22T08:10:13.723Z,11.32
2022-10-22T08:12:41.660Z,11.20
2022-10-22T08:15:09.955Z,9.65
2022-10-22T08:17:36.869Z,9.18
2022-10-22T08:20:04.430Z,6.10
2022-10-22T08:22:31.587Z,6.18
2022-10-22T08:24:59.164Z,5.32
2022-10-22T08:27:26.125Z,6.30
2022-10-22T08:29:52.772Z,6.55
2022-10-22T08:32:19.627Z,4.90
2022-10-22T08:34:46.292Z,17.75
2022-10-22T08:37:14.544Z,3.50
2022-10-22T08:39:41.689Z,5.60
2022-10-22T08:42:27.251Z,4.35
2022-10-22T08:45:09.135Z,4.82
2022-10-22T08:47:59.806Z,3.65
2022-10-22T08:51:02.041Z,3.97
2022-10-22T08:53:38.782Z,4.38
2022-10-22T08:56:05.675Z,3.92
2022-10-22T08:59:07.722Z,5.43
2022-10-22T09:01:40.187Z,6.80
2022-10-22T09:04:17.327Z,5.20
2022-10-22T09:06:44.520Z,5.07
2022-10-22T09:09:18.772Z,4.05
2022-10-22T09:11:48.922Z,4.57
2022-10-22T09:14:22.425Z,4.65
2022-10-22T09:17:20.972Z,4.20
2022-10-22T09:19:54.402Z,3.08
2022-10-22T09:23:09.351Z,3.20
2022-10-22T09:25:37.115Z,2.75
2022-10-22T09:28:04.613Z,3.10
2022-10-22T09:30:35.502Z,2.78
2022-10-22T09:33:12.583Z,2.45
2022-10-22T09:35:53.271Z,3.05
2022-10-22T09:38:28.390Z,3.30
2022-10-22T09:40:57.336Z,3.45
2022-10-22T09:43:24.403Z,2.88
2022-10-22T09:46:18.709Z,3.00
2022-10-22T09:48:51.994Z,2.95
2022-10-22T09:51:24.392Z,3.40
2022-10-22T09:54:00.142Z,4.13
2022-10-22T09:56:32.574Z,3.58
2022-10-22T09:58:59.298Z,3.67
2022-10-22T10:01:32.895Z,3.42
2022-10-22T10:04:11.551Z,3.38
2022-10-22T10:06:41.179Z,3.00
2022-10-22T10:09:19.559Z,2.88
2022-10-22T10:11:51.689Z,2.25
2022-10-22T10:14:29.067Z,2.47
2022-10-22T10:17:08.940Z,2.60
2022-10-22T10:19:48.132Z,3.13
2022-10-22T10:22:42.247Z,2.53
2022-10-22T10:25:14.916Z,2.67
2022-10-22T10:27:47.759Z,2.78
2022-10-22T10:30:18.841Z,2.50
2022-10-22T10:32:57.642Z,2.30
2022-10-22T10:35:28.557Z,2.65
2022-10-22T10:38:16.602Z,2.35
2022-10-22T10:41:09.326Z,2.20
2022-10-22T10:43:45.457Z,2.30
2022-10-22T10:46:20.627Z,2.25
2022-10-22T10:48:53.778Z,2.40
2022-10-22T10:51:23.222Z,2.40
2022-10-22T10:54:27.667Z,2.30
2022-10-22T10:57:17.958Z,2.58
2022-10-22T11:00:06.139Z,2.58
2022-10-22T11:02:48.058Z,2.42
2022-10-22T11:05:48.843Z,2.40
2022-10-22T11:08:30.078Z,2.75
2022-10-22T11:11:06.582Z,2.53
2022-10-22T11:14:00.466Z,2.95
2022-10-22T11:16:37.103Z,2.58
2022-10-22T11:19:22.634Z,2.78
2022-10-22T11:22:16.348Z,3.05
2022-10-22T11:25:04.029Z,2.50
2022-10-22T11:27:39.373Z,2.30
2022-10-22T11:30:20.707Z,2.50
2022-10-22T11:32:57.591Z,2.55
2022-10-22T11:35:27.478Z,2.60
2022-10-22T11:37:57.167Z,2.88
2022-10-22T11:40:29.901Z,2.80
2022-10-22T11:43:08.569Z,2.35
2022-10-22T11:45:38.038Z,2.97
2022-10-22T11:48:10.771Z,2.85
2022-10-22T11:50:50.950Z,2.83
2022-10-22T11:53:39.261Z,3.15
2022-10-22T11:56:13.153Z,3.28
2022-10-22T11:58:52.146Z,3.40
2022-10-22T12:01:39.819Z,3.20
2022-10-22T12:04:17.671Z,3.10
2022-10-22T12:07:30.438Z,3.13
2022-10-22T12:09:58.520Z,3.15
2022-10-22T12:12:25.200Z,3.33
2022-10-22T12:14:59.436Z,3.38
2022-10-22T12:17:28.701Z,3.38
2022-10-22T12:20:14.387Z,2.83
2022-10-22T12:22:42.240Z,3.20
2022-10-22T12:25:23.090Z,3.28
2022-10-22T12:27:55.614Z,2.92
2022-10-22T12:30:28.130Z,4.28
2022-10-22T12:32:57.411Z,4.10
2022-10-22T12:35:28.180Z,3.75
2022-10-22T12:37:57.455Z,3.88
2022-10-22T12:40:29.791Z,4.05
2022-10-22T12:43:11.620Z,4.47
2022-10-22T12:45:39.475Z,3.72
2022-10-22T12:48:14.609Z,4.05
2022-10-22T12:50:44.491Z,6.75
2022-10-22T12:53:26.390Z,23.40
2022-10-22T12:55:55.541Z,6.38
2022-10-22T12:58:34.145Z,8.07
2022-10-22T13:01:02.292Z,5.38
2022-10-22T13:04:03.628Z,15.30
2022-10-22T13:06:33.750Z,10.23
2022-10-22T13:09:00.621Z,6.63
2022-10-22T13:11:58.358Z,11.30
2022-10-22T13:14:24.994Z,6.65
2022-10-22T13:17:36.839Z,5.63
2022-10-22T13:20:22.586Z,5.50
2022-10-22T13:23:05.849Z,4.78
2022-10-22T13:25:35.132Z,5.00
2022-10-22T13:28:16.801Z,5.03
2022-10-22T13:30:54.293Z,4.93
2022-10-22T13:33:29.467Z,4.90
2022-10-22T13:35:57.039Z,4.65
2022-10-22T13:38:26.190Z,5.45
2022-10-22T13:40:53.239Z,5.18
2022-10-22T13:43:20.337Z,4.97
2022-10-22T13:45:48.862Z,4.72
2022-10-22T13:48:19.211Z,5.18
2022-10-22T13:50:55.652Z,5.28
2022-10-22T13:53:25.393Z,5.40
2022-10-22T13:55:52.109Z,5.18
2022-10-22T13:58:21.741Z,5.68
2022-10-22T14:00:55.810Z,6.45
2022-10-22T14:03:26.350Z,6.40
2022-10-22T14:05:53.062Z,6.03
2022-10-22T14:08:23.423Z,10.25
2022-10-22T14:10:50.201Z,8.48
2022-10-22T14:13:18.346Z,7.07
2022-10-22T14:15:48.051Z,6.88
2022-10-22T14:18:27.487Z,6.57
2022-10-22T14:20:57.468Z,6.60
2022-10-22T14:23:29.524Z,5.25
2022-10-22T14:25:57.769Z,5.65
2022-10-22T14:28:24.497Z,5.82
2022-10-22T14:30:52.366Z,6.03
2022-10-22T14:33:28.958Z,8.32
2022-10-22T14:36:02.077Z,7.88
2022-10-22T14:38:29.406Z,10.27
2022-10-22T14:40:56.751Z,9.85
2022-10-22T14:43:27.088Z,10.25
2022-10-22T14:45:54.452Z,9.75
2022-10-22T14:48:21.244Z,9.27
2022-10-22T14:50:49.182Z,10.60
2022-10-22T14:53:16.893Z,9.68
2022-10-22T14:55:47.243Z,10.23
2022-10-22T14:58:14.625Z,13.18
2022-10-22T15:00:42.733Z,15.75
2022-10-22T15:03:10.376Z,14.70
2022-10-22T15:05:44.328Z,18.85
2022-10-22T15:08:12.885Z,23.50
2022-10-22T15:10:40.252Z,25.90
2022-10-22T15:13:07.178Z,26.88
2022-10-22T15:15:36.636Z,22.58
2022-10-22T15:18:06.082Z,25.45
2022-10-22T15:20:32.890Z,29.38
2022-10-22T15:22:59.611Z,24.15
2022-10-22T15:25:26.378Z,31.92
2022-10-22T15:27:54.928Z,26.88
2022-10-22T15:30:26.351Z,25.27
2022-10-22T15:32:53.075Z,23.23
2022-10-22T15:35:19.722Z,22.48
2022-10-22T15:37:46.411Z,27.00
2022-10-22T15:40:13.036Z,30.83
2022-10-22T15:42:40.039Z,30.73
2022-10-22T15:45:07.460Z,40.05
2022-10-22T15:47:34.176Z,42.13
2022-10-22T15:50:01.015Z,20.45
2022-10-22T15:52:28.486Z,23.15
2022-10-22T15:54:55.548Z,30.23
2022-10-22T15:57:22.377Z,29.30
2022-10-22T15:59:50.190Z,28.48
2022-10-22T16:02:16.925Z,29.23
2022-10-22T16:04:43.695Z,27.75
2022-10-22T16:07:10.451Z,39.38
2022-10-22T16:09:37.186Z,33.38
2022-10-22T16:12:04.017Z,32.33
2022-10-22T16:14:30.702Z,30.42
2022-10-22T16:16:57.625Z,28.33
2022-10-22T16:19:24.777Z,28.90
2022-10-22T16:21:53.338Z,28.92
2022-10-22T16:24:21.118Z,35.95
2022-10-22T16:26:48.199Z,51.25
2022-10-22T16:29:15.087Z,47.63
2022-10-22T16:31:43.698Z,40.70
2022-10-22T16:34:10.651Z,34.42
2022-10-22T16:36:38.403Z,30.70
2022-10-22T16:39:06.051Z,24.63
2022-10-22T16:41:36.469Z,29.35
2022-10-22T16:44:06.710Z,25.25
2022-10-22T16:46:34.899Z,27.25
2022-10-22T16:49:01.619Z,30.20
2022-10-22T16:51:28.957Z,32.00
2022-10-22T16:53:57.531Z,37.97
2022-10-22T16:56:25.697Z,43.42
2022-10-22T16:58:55.366Z,47.53
2022-10-22T17:01:26.247Z,48.88
2022-10-22T17:03:54.853Z,47.67
2022-10-22T17:06:23.615Z,31.58
2022-10-22T17:08:50.429Z,29.83
2022-10-22T17:11:21.235Z,27.95
2022-10-22T17:13:51.305Z,34.92
2022-10-22T17:16:20.028Z,26.73
2022-10-22T17:18:47.148Z,84.95
2022-10-22T17:21:15.372Z,57.20
2022-10-22T17:23:42.821Z,54.55
2022-10-22T17:26:16.170Z,53.38
2022-10-22T17:28:43.478Z,45.03
2022-10-22T17:31:18.036Z,66.28
2022-10-22T17:33:45.619Z,45.35
2022-10-22T17:36:13.760Z,38.13
2022-10-22T17:38:42.162Z,38.38
2022-10-22T17:41:14.565Z,46.78
2022-10-22T17:43:41.585Z,49.92
2022-10-22T17:46:14.608Z,56.60
2022-10-22T17:48:41.217Z,52.53
2022-10-22T17:51:09.142Z,44.63
2022-10-22T17:53:36.201Z,43.92
2022-10-22T17:56:06.989Z,48.92
2022-10-22T17:58:33.705Z,52.15
2022-10-22T18:01:00.412Z,46.78
2022-10-22T18:03:28.014Z,51.38
2022-10-22T18:05:55.314Z,36.25
2022-10-22T18:08:24.180Z,29.10
2022-10-22T18:10:50.871Z,34.97
2022-10-22T18:13:17.633Z,30.27
2022-10-22T18:15:44.256Z,41.78
2022-10-22T18:18:11.147Z,38.47
2022-10-22T18:20:37.846Z,38.55
2022-10-22T18:23:04.733Z,38.63
2022-10-22T18:25:31.893Z,41.20
2022-10-22T18:27:58.627Z,37.95
2022-10-22T18:30:25.363Z,38.13
2022-10-22T18:32:52.083Z,43.70
2022-10-22T18:35:18.784Z,49.08
2022-10-22T18:37:45.488Z,53.28
2022-10-22T18:40:14.705Z,45.63
2022-10-22T18:42:42.173Z,39.08
2022-10-22T18:45:10.607Z,39.63
2022-10-22T18:47:40.554Z,33.85
2022-10-22T18:50:08.261Z,35.55
2022-10-22T18:52:35.300Z,35.95
2022-10-22T18:55:02.382Z,39.78
2022-10-22T18:57:29.025Z,37.60
2022-10-22T18:59:58.581Z,41.17
2022-10-22T19:02:26.613Z,37.72
2022-10-22T19:04:53.303Z,48.53
2022-10-22T19:07:19.974Z,41.25
2022-10-22T19:09:46.668Z,35.67
2022-10-22T19:12:15.092Z,26.48
2022-10-22T19:14:42.835Z,35.05
2022-10-22T19:17:09.699Z,40.20
2022-10-22T19:19:36.437Z,39.28
2022-10-22T19:22:03.193Z,39.53
2022-10-22T19:24:30.398Z,68.93
2022-10-22T19:26:57.099Z,68.20
2022-10-22T19:29:23.801Z,62.47
2022-10-22T19:31:53.227Z,59.78
2022-10-22T19:34:20.668Z,54.13
2022-10-22T19:36:47.587Z,49.08
2022-10-22T19:39:17.786Z,35.60
2022-10-22T19:41:44.789Z,27.40
2022-10-22T19:44:11.566Z,20.90
2022-10-22T19:46:38.858Z,19.33
2022-10-22T19:49:05.603Z,23.30
2022-10-22T19:51:34.470Z,23.42
2022-10-22T19:54:04.241Z,32.80
2022-10-22T19:56:31.535Z,30.95
2022-10-22T19:58:58.945Z,26.70
2022-10-22T20:01:26.534Z,21.33
2022-10-22T20:03:53.702Z,24.75
2022-10-22T20:06:21.925Z,24.30
2022-10-22T20:08:52.351Z,37.10
2022-10-22T20:11:24.675Z,43.50
2022-10-22T20:13:52.564Z,45.22
2022-10-22T20:16:23.288Z,55.85
2022-10-22T20:18:50.962Z,47.92
2022-10-22T20:21:19.410Z,45.75
2022-10-22T20:23:47.168Z,37.38
2022-10-22T20:26:13.924Z,41.83
2022-10-22T20:28:40.665Z,32.60
2022-10-22T20:31:12.287Z,34.70
2022-10-22T20:33:39.298Z,34.67
2022-10-22T20:36:09.263Z,31.60
2022-10-22T20:41:11.867Z,34.10
2022-10-22T20:43:38.559Z,32.38
2022-10-22T20:46:05.422Z,30.88
2022-10-22T20:48:32.590Z,34.88
2022-10-22T20:51:00.158Z,31.23
2022-10-22T20:53:27.815Z,17.38
2022-10-22T20:55:57.738Z,23.33
2022-10-22T20:58:26.841Z,25.58
2022-10-22T21:00:55.276Z,21.00
2022-10-22T21:03:22.512Z,17.23
2022-10-22T21:05:49.859Z,15.52
2022-10-22T21:08:17.706Z,14.77
2022-10-22T21:10:49.271Z,20.25
2022-10-22T21:13:16.891Z,23.77
2022-10-22T21:15:43.638Z,19.92
2022-10-22T21:18:10.384Z,27.15
2022-10-22T21:20:39.746Z,23.15
2022-10-22T21:23:06.813Z,26.15
2022-10-22T21:25:33.785Z,25.40
2022-10-22T21:28:00.691Z,26.27
2022-10-22T21:30:27.668Z,24.90
2022-10-22T21:32:56.867Z,24.55
2022-10-22T21:35:24.038Z,24.13
2022-10-22T21:37:50.870Z,48.08
2022-10-22T21:40:19.237Z,26.50
2022-10-22T21:42:45.945Z,26.63
2022-10-22T21:45:15.615Z,25.52
2022-10-22T21:47:44.600Z,25.80
2022-10-22T21:50:11.536Z,31.75
2022-10-22T21:52:38.469Z,46.33
2022-10-22T21:55:05.603Z,41.75
2022-10-22T21:57:32.671Z,37.45
2022-10-22T21:59:59.666Z,31.77
2022-10-22T22:02:28.713Z,35.80
2022-10-22T22:04:55.561Z,32.78
2022-10-22T22:07:22.415Z,32.35
2022-10-22T22:09:50.222Z,29.98
2022-10-22T22:12:17.393Z,24.55
2022-10-22T22:14:44.466Z,24.30
2022-10-22T22:17:11.214Z,33.80
2022-10-22T22:19:41.137Z,28.23
2022-10-22T22:22:07.817Z,18.73
2022-10-22T22:24:34.584Z,23.25
2022-10-22T22:27:01.758Z,22.13
2022-10-22T22:29:28.362Z,20.52
2022-10-22T22:31:56.242Z,23.40
2022-10-22T22:34:22.893Z,21.70
2022-10-22T22:36:49.877Z,22.73
2022-10-22T22:39:19.458Z,20.30
2022-10-22T22:41:46.985Z,21.75
2022-10-22T22:44:13.703Z,22.35
2022-10-22T22:46:40.679Z,31.00
2022-10-22T22:49:08.143Z,25.23
2022-10-22T22:51:34.939Z,28.40
2022-10-22T22:54:02.277Z,22.00
2022-10-22T22:56:31.186Z,19.52
2022-10-22T22:58:58.433Z,21.85
2022-10-22T23:01:32.407Z,18.85
2022-10-22T23:04:02.077Z,24.33
2022-10-22T23:06:32.015Z,23.13
2022-10-22T23:08:59.534Z,19.88
2022-10-22T23:11:27.366Z,17.30
2022-10-22T23:14:03.293Z,19.70
2022-10-22T23:16:32.478Z,17.73
2022-10-22T23:19:00.454Z,17.45
2022-10-22T23:21:37.868Z,18.90
2022-10-22T23:24:11.224Z,26.08
2022-10-22T23:26:41.906Z,19.92
2022-10-22T23:29:12.597Z,15.05
2022-10-22T23:31:39.436Z,11.93
2022-10-22T23:34:07.538Z,11.70
2022-10-22T23:36:36.243Z,11.70
2022-10-22T23:39:05.318Z,12.55
2022-10-22T23:41:32.056Z,13.55
2022-10-22T23:43:58.961Z,11.02
2022-10-22T23:46:25.636Z,11.88
2022-10-22T23:48:53.851Z,15.43
2022-10-22T23:51:21.790Z,16.20
2022-10-22T23:53:55.562Z,15.82
2022-10-22T23:56:22.247Z,10.98
2022-10-22T23:58:53.448Z,8.77
